createdAt,value
2022-11-09T00:01:07.577Z,94.90
2022-11-09T00:03:36.397Z,95.16
2022-11-09T00:06:05.141Z,95.02
2022-11-09T00:08:37.637Z,95.21
2022-11-09T00:11:08.515Z,94.99
2022-11-09T00:13:38.964Z,94.89
2022-11-09T00:16:09.270Z,95.26
2022-11-09T00:18:39.635Z,94.81
2022-11-09T00:21:17.290Z,94.96
2022-11-09T00:23:47.919Z,94.98
2022-11-09T00:26:19.641Z,94.95
2022-11-09T00:28:48.795Z,94.53
2022-11-09T00:31:20.813Z,94.44
2022-11-09T00:33:50.872Z,94.35
2022-11-09T00:36:21.248Z,94.13
2022-11-09T00:38:54.817Z,93.81
2022-11-09T00:41:24.428Z,94.08
2022-11-09T00:43:54.096Z,93.56
2022-11-09T00:46:23.677Z,93.84
2022-11-09T00:48:53.287Z,93.83
2022-11-09T00:51:22.084Z,94.17
2022-11-09T00:53:54.893Z,94.35
2022-11-09T00:56:24.766Z,94.08
2022-11-09T00:58:56.766Z,94.76
2022-11-09T01:01:25.842Z,94.44
2022-11-09T01:03:55.011Z,94.27
2022-11-09T01:06:27.207Z,94.36
2022-11-09T01:08:57.452Z,94.04
2022-11-09T01:11:26.456Z,94.17
2022-11-09T01:13:56.106Z,94.38
2022-11-09T01:16:25.833Z,94.69
2022-11-09T01:18:56.199Z,94.66
2022-11-09T01:21:27.858Z,94.86
2022-11-09T01:23:59.173Z,94.60
2022-11-09T01:26:30.544Z,94.85
2022-11-09T01:28:59.370Z,95.02
2022-11-09T01:31:28.500Z,95.01
2022-11-09T01:33:57.443Z,94.87
2022-11-09T01:36:27.870Z,94.83
2022-11-09T01:38:58.148Z,95.37
2022-11-09T01:41:29.809Z,95.38
2022-11-09T01:44:13.524Z,95.00
2022-11-09T01:46:53.832Z,94.89
2022-11-09T01:49:37.920Z,95.06
2022-11-09T01:52:13.532Z,94.94
2022-11-09T01:54:49.985Z,95.17
2022-11-09T01:57:31.671Z,95.07
2022-11-09T02:00:07.591Z,95.06
2022-11-09T02:02:48.410Z,94.87
2022-11-09T02:05:25.220Z,95.12
2022-11-09T02:07:57.851Z,95.27
2022-11-09T02:11:02.067Z,95.17
2022-11-09T02:13:34.676Z,95.48
2022-11-09T02:16:11.748Z,95.22
2022-11-09T02:18:50.094Z,95.45
2022-11-09T02:21:21.081Z,94.94
2022-11-09T02:23:50.822Z,94.98
2022-11-09T02:26:28.861Z,94.98
2022-11-09T02:29:02.668Z,94.89
2022-11-09T02:31:37.641Z,94.97
2022-11-09T02:34:10.811Z,94.89
2022-11-09T02:36:43.633Z,95.07
2022-11-09T02:39:23.200Z,94.92
2022-11-09T02:42:02.757Z,94.58
2022-11-09T02:44:42.100Z,94.99
2022-11-09T02:47:10.955Z,95.05
2022-11-09T02:49:39.727Z,95.23
2022-11-09T02:52:11.709Z,95.16
2022-11-09T02:54:40.503Z,95.08
2022-11-09T02:57:09.540Z,94.95
2022-11-09T02:59:39.453Z,94.89
2022-11-09T03:02:09.016Z,94.84
2022-11-09T03:04:37.801Z,94.46
2022-11-09T03:07:09.036Z,94.66
2022-11-09T03:09:40.700Z,94.38
2022-11-09T03:12:23.420Z,94.48
2022-11-09T03:14:53.440Z,93.99
2022-11-09T03:17:22.333Z,93.98
2022-11-09T03:19:51.100Z,94.01
2022-11-09T03:22:21.014Z,93.78
2022-11-09T03:24:52.106Z,93.65
2022-11-09T03:27:20.987Z,93.80
2022-11-09T03:29:51.322Z,93.58
2022-11-09T03:32:20.059Z,93.43
2022-11-09T03:34:49.338Z,93.55
2022-11-09T03:37:18.118Z,93.49
2022-11-09T03:39:47.484Z,93.35
2022-11-09T03:42:18.470Z,93.62
2022-11-09T03:44:47.192Z,93.65
2022-11-09T03:47:15.932Z,93.80
2022-11-09T03:49:44.644Z,93.48
2022-11-09T03:52:13.391Z,93.00
2022-11-09T03:54:42.098Z,92.77
2022-11-09T03:57:10.778Z,92.87
2022-11-09T04:00:19.983Z,92.42
2022-11-09T04:02:50.644Z,92.90
2022-11-09T04:05:20.290Z,92.72
2022-11-09T04:07:52.313Z,93.47
2022-11-09T04:10:22.816Z,93.68
2022-11-09T04:14:22.665Z,93.40
2022-11-09T04:17:22.659Z,92.90
2022-11-09T04:19:51.436Z,92.83
2022-11-09T04:22:20.251Z,92.99
2022-11-09T04:24:48.957Z,93.04
2022-11-09T04:27:19.798Z,93.36
2022-11-09T04:29:48.856Z,93.02
2022-11-09T04:32:45.174Z,92.94
2022-11-09T04:35:13.906Z,93.69
2022-11-09T04:37:42.668Z,93.34
2022-11-09T04:40:15.111Z,93.66
2022-11-09T04:42:43.833Z,93.48
2022-11-09T04:45:12.913Z,93.56
2022-11-09T04:47:41.824Z,93.49
2022-11-09T04:55:02.052Z,93.62
2022-11-09T05:02:08.863Z,93.78
2022-11-09T05:04:37.751Z,94.50
2022-11-09T05:07:07.030Z,94.34
2022-11-09T05:09:39.614Z,94.29
2022-11-09T05:16:48.981Z,94.19
2022-11-09T05:20:33.739Z,95.09
2022-11-09T05:23:20.726Z,94.65
2022-11-09T05:25:50.529Z,94.45
2022-11-09T05:28:20.330Z,94.64
2022-11-09T05:30:49.585Z,95.35
2022-11-09T05:34:38.160Z,94.83
2022-11-09T05:37:08.480Z,94.58
2022-11-09T05:39:42.115Z,94.91
2022-11-09T05:42:12.990Z,95.37
2022-11-09T05:44:44.036Z,95.82
2022-11-09T05:47:12.769Z,95.52
2022-11-09T05:49:41.539Z,96.24
2022-11-09T05:52:11.659Z,95.75
2022-11-09T05:54:40.411Z,95.53
2022-11-09T05:57:09.444Z,95.50
2022-11-09T05:59:38.333Z,95.10
2022-11-09T06:02:07.114Z,95.51
2022-11-09T06:04:35.945Z,95.37
2022-11-09T06:07:04.730Z,94.83
2022-11-09T06:09:56.301Z,94.69
2022-11-09T06:13:15.809Z,94.53
2022-11-09T06:15:44.475Z,94.66
2022-11-09T06:18:13.258Z,94.47
2022-11-09T06:20:41.969Z,94.85
2022-11-09T06:23:12.175Z,94.84
2022-11-09T06:25:42.508Z,94.77
2022-11-09T06:28:11.260Z,94.44
2022-11-09T06:30:40.739Z,94.42
2022-11-09T06:33:09.664Z,94.22
2022-11-09T06:35:38.689Z,94.52
2022-11-09T06:38:07.412Z,94.53
2022-11-09T06:40:37.231Z,94.65
2022-11-09T06:43:07.929Z,94.62
2022-11-09T06:45:37.083Z,95.08
2022-11-09T06:48:06.436Z,94.93
2022-11-09T06:50:35.795Z,94.49
2022-11-09T06:53:07.605Z,94.70
2022-11-09T06:55:38.067Z,94.84
2022-11-09T06:58:11.221Z,94.41
2022-11-09T07:00:40.150Z,94.42
2022-11-09T07:03:08.854Z,94.50
2022-11-09T07:05:40.321Z,94.29
2022-11-09T07:08:09.235Z,94.19
2022-11-09T07:10:38.572Z,94.39
2022-11-09T07:13:09.692Z,94.22
2022-11-09T07:15:39.925Z,94.48
2022-11-09T07:18:12.922Z,94.68
2022-11-09T07:20:41.689Z,94.89
2022-11-09T07:23:10.552Z,94.79
2022-11-09T07:25:39.403Z,94.64
2022-11-09T07:28:12.697Z,94.43
2022-11-09T07:30:41.696Z,94.82
2022-11-09T07:33:18.252Z,94.64
2022-11-09T07:35:48.036Z,94.84
2022-11-09T07:38:17.188Z,94.75
2022-11-09T07:40:45.924Z,94.63
2022-11-09T07:43:17.505Z,94.58
2022-11-09T07:45:51.343Z,94.20
2022-11-09T07:48:20.050Z,94.17
2022-11-09T07:50:48.798Z,94.32
2022-11-09T07:53:18.291Z,94.13
2022-11-09T07:55:47.177Z,94.26
2022-11-09T07:58:17.648Z,94.07
2022-11-09T08:00:46.522Z,94.13
2022-11-09T08:03:15.231Z,94.17
2022-11-09T08:05:43.896Z,94.43
2022-11-09T08:08:15.724Z,94.22
2022-11-09T08:10:50.563Z,94.48
2022-11-09T08:13:22.026Z,94.40
2022-11-09T08:15:51.082Z,94.52
2022-11-09T08:18:22.850Z,94.38
2022-11-09T08:20:51.812Z,94.39
2022-11-09T08:23:22.544Z,94.18
2022-11-09T08:25:52.524Z,94.13
2022-11-09T08:28:23.477Z,94.02
2022-11-09T08:30:58.656Z,93.76
2022-11-09T08:33:29.073Z,93.71
2022-11-09T08:35:58.394Z,93.74
2022-11-09T08:38:27.147Z,93.72
2022-11-09T08:40:59.508Z,93.70
2022-11-09T08:43:29.786Z,93.72
2022-11-09T08:45:58.618Z,93.33
2022-11-09T08:48:27.664Z,93.75
2022-11-09T08:50:59.160Z,93.80
2022-11-09T08:53:30.673Z,93.91
2022-11-09T08:55:59.609Z,93.56
2022-11-09T08:58:29.786Z,94.34
2022-11-09T09:00:58.661Z,94.72
2022-11-09T09:03:27.409Z,94.33
2022-11-09T09:05:56.575Z,94.40
2022-11-09T09:08:26.040Z,94.58
2022-11-09T09:10:54.764Z,94.43
2022-11-09T09:13:23.722Z,94.42
2022-11-09T09:15:53.883Z,94.39
2022-11-09T09:18:23.109Z,94.30
2022-11-09T09:20:52.194Z,94.00
2022-11-09T09:23:20.943Z,94.14
2022-11-09T09:25:49.611Z,93.87
2022-11-09T09:28:18.520Z,93.86
2022-11-09T09:30:47.472Z,93.79
2022-11-09T09:33:17.621Z,93.60
2022-11-09T09:35:46.315Z,93.68
2022-11-09T09:38:15.061Z,93.66
2022-11-09T09:40:58.460Z,93.73
2022-11-09T09:43:41.393Z,93.73
2022-11-09T09:46:21.296Z,93.91
2022-11-09T09:48:58.491Z,93.87
2022-11-09T09:51:40.280Z,94.05
2022-11-09T09:54:18.764Z,93.89
2022-11-09T09:56:51.163Z,93.94
2022-11-09T09:59:33.243Z,94.44
2022-11-09T10:02:02.087Z,94.31
2022-11-09T10:04:38.741Z,94.74
2022-11-09T10:07:19.117Z,94.86
2022-11-09T10:10:07.340Z,94.52
2022-11-09T10:12:59.191Z,94.45
2022-11-09T10:15:36.687Z,93.91
2022-11-09T10:18:37.099Z,93.54
2022-11-09T10:21:24.513Z,93.36
2022-11-09T10:24:16.092Z,93.38
2022-11-09T10:26:50.709Z,93.19
2022-11-09T10:29:26.267Z,93.14
2022-11-09T10:31:58.796Z,92.67
2022-11-09T10:34:34.322Z,92.57
2022-11-09T10:37:14.852Z,92.57
2022-11-09T10:39:53.681Z,92.16
2022-11-09T11:47:12.389Z,82.26
2022-11-09T11:50:46.800Z,82.43
2022-11-09T11:54:08.944Z,81.49
2022-11-09T12:00:27.150Z,80.31
2022-11-09T12:03:41.616Z,80.62
2022-11-09T12:16:19.028Z,78.96
2022-11-09T12:19:45.373Z,78.91
2022-11-09T12:22:48.020Z,79.29
2022-11-09T12:28:59.444Z,77.16
2022-11-09T12:32:04.811Z,77.67
2022-11-09T12:35:17.682Z,78.44
2022-11-09T12:38:14.790Z,78.11
2022-11-09T12:41:08.941Z,79.08
2022-11-09T12:44:05.347Z,79.40
2022-11-09T12:47:04.220Z,80.25
2022-11-09T12:49:55.018Z,79.75
2022-11-09T12:52:45.012Z,79.31
2022-11-09T12:55:45.136Z,77.81
2022-11-09T12:58:35.987Z,78.57
2022-11-09T13:01:52.366Z,78.07
2022-11-09T13:04:39.598Z,77.78
2022-11-09T13:07:54.258Z,77.72
2022-11-09T13:10:41.973Z,77.33
2022-11-09T13:13:29.204Z,77.43
2022-11-09T13:16:37.818Z,77.59
2022-11-09T13:19:55.218Z,78.08
2022-11-09T13:23:06.924Z,78.59
2022-11-09T13:25:55.989Z,78.57
2022-11-09T13:29:23.681Z,78.39
2022-11-09T13:32:35.350Z,78.95
2022-11-09T13:36:15.371Z,79.43
2022-11-09T13:39:33.213Z,80.19
2022-11-09T13:42:30.709Z,80.42
2022-11-09T13:48:46.208Z,81.94
2022-11-09T13:51:51.333Z,81.13
2022-11-09T13:54:45.482Z,80.46
2022-11-09T13:57:34.622Z,79.56
2022-11-09T14:00:26.969Z,79.30
2022-11-09T14:03:25.141Z,78.88
2022-11-09T14:06:15.262Z,78.71
2022-11-09T14:09:04.960Z,79.19
2022-11-09T14:12:33.776Z,78.84
2022-11-09T14:15:46.528Z,78.63
2022-11-09T14:18:51.188Z,78.92
2022-11-09T14:21:47.322Z,79.12
2022-11-09T14:24:39.594Z,79.62
2022-11-09T14:27:27.510Z,80.27
2022-11-09T14:30:23.722Z,80.87
2022-11-09T14:33:27.192Z,81.19
2022-11-09T14:36:15.628Z,81.57
2022-11-09T14:39:13.721Z,82.46
2022-11-09T14:42:02.427Z,82.84
2022-11-09T14:44:50.873Z,83.03
2022-11-09T14:47:40.047Z,82.68
2022-11-09T14:50:31.900Z,82.78
2022-11-09T14:53:26.447Z,82.94
2022-11-09T14:56:19.383Z,83.27
2022-11-09T14:59:08.529Z,83.74
2022-11-09T15:02:07.676Z,83.56
2022-11-09T15:04:57.273Z,83.99
2022-11-09T15:07:51.490Z,83.85
2022-11-09T15:10:40.325Z,84.07
2022-11-09T15:13:36.546Z,84.37
2022-11-09T15:16:30.632Z,84.71
2022-11-09T15:19:30.524Z,84.72
2022-11-09T15:22:48.610Z,84.72
2022-11-09T15:25:55.659Z,85.17
2022-11-09T15:28:51.557Z,85.07
2022-11-09T15:31:39.261Z,85.05
2022-11-09T15:34:33.359Z,85.25
2022-11-09T15:38:27.945Z,85.29
2022-11-09T15:41:19.493Z,85.31
2022-11-09T15:44:09.655Z,85.74
2022-11-09T15:47:00.137Z,85.66
2022-11-09T15:49:47.956Z,85.39
2022-11-09T15:52:40.845Z,85.51
2022-11-09T15:55:33.349Z,85.83
2022-11-09T15:58:22.073Z,85.80
2022-11-09T16:01:14.578Z,85.96
2022-11-09T16:04:03.253Z,86.27
2022-11-09T16:06:52.046Z,86.01
2022-11-09T16:09:42.025Z,86.65
2022-11-09T16:12:35.616Z,86.36
2022-11-09T16:15:24.899Z,86.58
2022-11-09T16:18:16.810Z,86.37
2022-11-09T16:21:49.140Z,87.04
2022-11-09T16:24:37.158Z,87.06
2022-11-09T16:30:34.735Z,86.99
2022-11-09T16:33:23.715Z,87.35
2022-11-09T16:36:20.754Z,87.18
2022-11-09T16:39:19.797Z,87.35
2022-11-09T16:42:13.670Z,87.20
2022-11-09T16:45:11.796Z,87.45
2022-11-09T16:47:59.888Z,87.38
2022-11-09T16:50:49.033Z,87.83
2022-11-09T16:54:06.341Z,88.27
2022-11-09T16:56:55.035Z,87.94
2022-11-09T16:59:42.421Z,88.83
2022-11-09T17:02:38.184Z,89.09
2022-11-09T17:05:25.570Z,88.50
2022-11-09T17:08:17.143Z,88.25
2022-11-09T17:11:10.219Z,88.33
2022-11-09T17:13:58.527Z,88.72
2022-11-09T17:16:47.499Z,88.18
2022-11-09T17:19:37.059Z,88.47
2022-11-09T17:22:29.288Z,88.17
2022-11-09T17:25:23.527Z,88.31
2022-11-09T17:29:27.628Z,88.39
2022-11-09T17:32:22.969Z,87.95
2022-11-09T17:35:14.132Z,88.36
2022-11-09T17:38:06.036Z,89.11
2022-11-09T17:41:02.392Z,89.06
2022-11-09T17:43:49.804Z,89.67
2022-11-09T17:46:45.332Z,89.92
2022-11-09T17:49:35.204Z,89.92
2022-11-09T17:52:29.092Z,89.23
2022-11-09T17:55:17.534Z,89.78
2022-11-09T17:58:06.877Z,90.04
2022-11-09T18:01:07.654Z,89.69
2022-11-09T18:03:55.736Z,89.96
2022-11-09T18:06:44.085Z,90.05
2022-11-09T18:09:47.007Z,89.94
2022-11-09T18:12:37.230Z,89.44
2022-11-09T18:16:16.171Z,89.99
2022-11-09T18:19:07.059Z,90.39
2022-11-09T18:21:55.037Z,90.28
2022-11-09T18:24:43.668Z,90.34
2022-11-09T18:27:31.220Z,90.19
2022-11-09T18:30:20.218Z,90.48
2022-11-09T18:33:12.792Z,90.28
2022-11-09T18:36:09.380Z,91.12
2022-11-09T18:38:57.670Z,90.95
2022-11-09T18:41:45.607Z,91.00
2022-11-09T18:44:32.889Z,91.08
2022-11-09T18:47:20.651Z,91.51
2022-11-09T18:50:11.370Z,91.43
2022-11-09T18:53:00.629Z,91.53
2022-11-09T18:55:48.518Z,91.55
2022-11-09T18:58:41.265Z,91.04
2022-11-09T19:01:48.630Z,92.15
2022-11-09T19:04:37.022Z,92.14
2022-11-09T19:07:25.909Z,91.74
2022-11-09T19:14:57.522Z,92.05
2022-11-09T19:17:56.281Z,92.23
2022-11-09T19:20:44.203Z,92.93
2022-11-09T19:23:34.874Z,92.60
2022-11-09T19:27:17.361Z,93.28
2022-11-09T19:30:09.327Z,92.80
2022-11-09T19:33:28.400Z,92.94
2022-11-09T19:36:34.606Z,93.69
2022-11-09T19:39:28.325Z,93.54
2022-11-09T19:42:27.133Z,93.88
2022-11-09T19:45:15.744Z,94.46
2022-11-09T19:48:05.689Z,94.20
2022-11-09T19:50:54.822Z,94.45
2022-11-09T19:53:44.399Z,94.04
2022-11-09T19:56:37.075Z,94.81
2022-11-09T19:59:24.915Z,95.61
2022-11-09T20:02:12.980Z,95.59
2022-11-09T20:05:09.993Z,95.79
2022-11-09T20:07:57.487Z,95.54
2022-11-09T20:10:45.038Z,95.72
2022-11-09T20:13:34.268Z,95.52
2022-11-09T20:16:22.833Z,96.38
2022-11-09T20:19:14.411Z,96.31
2022-11-09T20:22:03.505Z,96.23
2022-11-09T20:24:51.308Z,95.88
2022-11-09T20:27:39.216Z,95.93
2022-11-09T20:30:28.818Z,96.12
2022-11-09T20:33:17.366Z,96.79
2022-11-09T20:36:06.090Z,97.20
2022-11-09T20:46:40.005Z,97.97
2022-11-09T20:49:27.153Z,98.45
2022-11-09T20:52:14.238Z,98.35
2022-11-09T20:55:04.396Z,98.77
2022-11-09T20:57:51.604Z,98.82
2022-11-09T21:00:40.625Z,98.97
2022-11-09T21:03:29.140Z,98.80
2022-11-09T21:06:17.765Z,99.48
2022-11-09T21:09:05.849Z,99.75
2022-11-09T21:12:10.529Z,99.70
2022-11-09T21:14:57.836Z,99.82
2022-11-09T21:17:45.225Z,100.00
2022-11-09T21:20:36.167Z,100.00
2022-11-09T21:23:41.353Z,100.00
2022-11-09T21:26:47.274Z,99.69
2022-11-09T21:29:53.380Z,99.30
2022-11-09T21:32:41.190Z,99.08
2022-11-09T21:35:28.648Z,99.21
2022-11-09T21:38:17.151Z,99.38
2022-11-09T21:41:21.824Z,99.40
2022-11-09T21:44:11.547Z,99.44
2022-11-09T21:47:00.040Z,99.08
2022-11-09T21:49:47.130Z,98.99
2022-11-09T21:52:34.078Z,100.00
2022-11-09T21:55:23.940Z,100.00
2022-11-09T21:58:11.077Z,99.82
2022-11-09T22:01:02.569Z,99.46
2022-11-09T22:03:51.250Z,99.49
2022-11-09T22:06:41.578Z,99.86
2022-11-09T22:09:35.705Z,99.64
2022-11-09T22:12:51.260Z,99.53
2022-11-09T22:15:55.578Z,99.90
2022-11-09T22:19:00.411Z,99.64
2022-11-09T22:21:47.470Z,99.91
2022-11-09T22:24:34.527Z,99.93
2022-11-09T22:27:22.573Z,99.57
2022-11-09T22:30:12.575Z,100.00
2022-11-09T22:33:00.413Z,100.00
2022-11-09T22:35:55.889Z,100.00
2022-11-09T22:38:46.140Z,100.00
2022-11-09T22:41:33.767Z,100.00
2022-11-09T22:44:21.475Z,100.00
2022-11-09T22:47:10.055Z,100.00
2022-11-09T22:49:57.466Z,100.00
2022-11-09T22:52:44.610Z,100.00
2022-11-09T22:55:32.391Z,100.00
2022-11-09T22:58:19.465Z,100.00
2022-11-09T23:01:11.766Z,100.00
2022-11-09T23:04:00.651Z,100.00
2022-11-09T23:06:48.990Z,99.98
2022-11-09T23:09:36.336Z,99.94
2022-11-09T23:12:23.658Z,99.70
2022-11-09T23:15:13.399Z,99.81
2022-11-09T23:18:18.639Z,99.29
2022-11-09T23:21:08.015Z,99.41
2022-11-09T23:23:57.978Z,99.45
2022-11-09T23:26:45.483Z,99.29
2022-11-09T23:29:32.781Z,99.75
2022-11-09T23:32:19.978Z,99.34
2022-11-09T23:35:09.335Z,99.40
2022-11-09T23:38:03.255Z,99.48
2022-11-09T23:40:51.241Z,99.42
2022-11-09T23:43:39.232Z,99.35
2022-11-09T23:46:26.497Z,99.30
2022-11-09T23:49:13.977Z,98.85
2022-11-09T23:52:01.597Z,99.33
2022-11-09T23:54:50.419Z,99.19
2022-11-09T23:57:37.635Z,99.01
